sensor_id;sensor_type;location;lat;lon;timestamp;P1;durP1;ratioP1;P2;durP2;ratioP2
71867;SDS011;59738;48.324;14.230;2022-11-25T00:01:32;8.75;;;4.45;;
71867;SDS011;59738;48.324;14.230;2022-11-25T00:04:00;7.17;;;4.27;;
71867;SDS011;59738;48.324;14.230;2022-11-25T00:06:29;7.93;;;4.38;;
71867;SDS011;59738;48.324;14.230;2022-11-25T00:08:58;6.28;;;4.00;;
71867;SDS011;59738;48.324;14.230;2022-11-25T00:11:27;7.65;;;4.40;;
71867;SDS011;59738;48.324;14.230;2022-11-25T00:13:55;6.75;;;3.90;;
71867;SDS011;59738;48.324;14.230;2022-11-25T00:16:23;6.70;;;3.87;;
71867;SDS011;59738;48.324;14.230;2022-11-25T00:18:53;6.50;;;3.88;;
71867;SDS011;59738;48.324;14.230;2022-11-25T00:21:22;10.15;;;5.00;;
71867;SDS011;59738;48.324;14.230;2022-11-25T00:23:51;7.75;;;4.22;;
71867;SDS011;59738;48.324;14.230;2022-11-25T00:26:19;7.55;;;4.07;;
71867;SDS011;59738;48.324;14.230;2022-11-25T00:28:47;10.37;;;4.20;;
71867;SDS011;59738;48.324;14.230;2022-11-25T00:31:15;9.80;;;4.05;;
71867;SDS011;59738;48.324;14.230;2022-11-25T00:33:44;6.65;;;4.20;;
71867;SDS011;59738;48.324;14.230;2022-11-25T00:36:15;10.20;;;4.65;;
71867;SDS011;59738;48.324;14.230;2022-11-25T00:38:43;8.40;;;4.22;;
71867;SDS011;59738;48.324;14.230;2022-11-25T00:41:11;6.70;;;4.10;;
71867;SDS011;59738;48.324;14.230;2022-11-25T00:43:57;7.50;;;4.40;;
71867;SDS011;59738;48.324;14.230;2022-11-25T00:46:43;8.02;;;4.70;;
71867;SDS011;59738;48.324;14.230;2022-11-25T00:49:11;7.97;;;4.50;;
71867;SDS011;59738;48.324;14.230;2022-11-25T00:51:39;9.88;;;4.10;;
71867;SDS011;59738;48.324;14.230;2022-11-25T00:54:08;8.67;;;4.07;;
71867;SDS011;59738;48.324;14.230;2022-11-25T00:56:36;7.82;;;3.92;;
71867;SDS011;59738;48.324;14.230;2022-11-25T00:59:04;7.25;;;4.38;;
71867;SDS011;59738;48.324;14.230;2022-11-25T01:01:31;8.50;;;4.35;;
71867;SDS011;59738;48.324;14.230;2022-11-25T01:04:01;9.32;;;4.45;;
71867;SDS011;59738;48.324;14.230;2022-11-25T01:06:29;8.63;;;4.80;;
71867;SDS011;59738;48.324;14.230;2022-11-25T01:08:58;105.55;;;7.10;;
71867;SDS011;59738;48.324;14.230;2022-11-25T01:11:26;76.05;;;7.32;;
71867;SDS011;59738;48.324;14.230;2022-11-25T01:13:54;31.45;;;6.07;;
71867;SDS011;59738;48.324;14.230;2022-11-25T01:16:24;28.70;;;5.78;;
71867;SDS011;59738;48.324;14.230;2022-11-25T01:18:51;10.63;;;5.63;;
71867;SDS011;59738;48.324;14.230;2022-11-25T01:21:20;9.20;;;6.05;;
71867;SDS011;59738;48.324;14.230;2022-11-25T01:23:48;12.35;;;5.43;;
71867;SDS011;59738;48.324;14.230;2022-11-25T01:26:18;10.77;;;5.22;;
71867;SDS011;59738;48.324;14.230;2022-11-25T01:28:47;11.00;;;5.80;;
71867;SDS011;59738;48.324;14.230;2022-11-25T01:31:15;10.13;;;5.60;;
71867;SDS011;59738;48.324;14.230;2022-11-25T01:33:44;11.63;;;5.35;;
71867;SDS011;59738;48.324;14.230;2022-11-25T01:36:15;12.50;;;5.90;;
71867;SDS011;59738;48.324;14.230;2022-11-25T01:38:44;11.27;;;4.95;;
71867;SDS011;59738;48.324;14.230;2022-11-25T01:41:12;9.00;;;5.10;;
71867;SDS011;59738;48.324;14.230;2022-11-25T01:43:41;7.63;;;4.80;;
71867;SDS011;59738;48.324;14.230;2022-11-25T01:46:11;10.35;;;5.30;;
71867;SDS011;59738;48.324;14.230;2022-11-25T01:48:47;8.00;;;5.25;;
71867;SDS011;59738;48.324;14.230;2022-11-25T01:51:17;12.25;;;5.40;;
71867;SDS011;59738;48.324;14.230;2022-11-25T01:53:47;10.63;;;5.00;;
71867;SDS011;59738;48.324;14.230;2022-11-25T01:56:16;6.03;;;3.73;;
71867;SDS011;59738;48.324;14.230;2022-11-25T01:58:45;9.15;;;4.65;;
71867;SDS011;59738;48.324;14.230;2022-11-25T02:01:14;7.30;;;4.07;;
71867;SDS011;59738;48.324;14.230;2022-11-25T02:03:43;9.35;;;4.93;;
71867;SDS011;59738;48.324;14.230;2022-11-25T02:06:17;10.32;;;5.10;;
71867;SDS011;59738;48.324;14.230;2022-11-25T02:08:49;9.37;;;4.50;;
71867;SDS011;59738;48.324;14.230;2022-11-25T02:11:18;8.13;;;4.85;;
71867;SDS011;59738;48.324;14.230;2022-11-25T02:13:48;9.57;;;5.82;;
71867;SDS011;59738;48.324;14.230;2022-11-25T02:16:17;12.25;;;5.40;;
71867;SDS011;59738;48.324;14.230;2022-11-25T02:18:44;12.05;;;5.50;;
71867;SDS011;59738;48.324;14.230;2022-11-25T02:21:12;9.07;;;5.47;;
71867;SDS011;59738;48.324;14.230;2022-11-25T02:23:42;11.57;;;5.47;;
71867;SDS011;59738;48.324;14.230;2022-11-25T02:26:16;9.50;;;5.65;;
71867;SDS011;59738;48.324;14.230;2022-11-25T02:28:43;12.13;;;5.78;;
71867;SDS011;59738;48.324;14.230;2022-11-25T02:31:11;11.18;;;5.63;;
71867;SDS011;59738;48.324;14.230;2022-11-25T02:33:38;8.97;;;5.20;;
71867;SDS011;59738;48.324;14.230;2022-11-25T02:36:09;9.32;;;5.32;;
71867;SDS011;59738;48.324;14.230;2022-11-25T02:38:39;14.98;;;5.65;;
71867;SDS011;59738;48.324;14.230;2022-11-25T02:41:11;11.68;;;5.45;;
71867;SDS011;59738;48.324;14.230;2022-11-25T02:43:45;12.80;;;5.78;;
71867;SDS011;59738;48.324;14.230;2022-11-25T02:46:14;10.47;;;5.60;;
71867;SDS011;59738;48.324;14.230;2022-11-25T02:48:45;10.23;;;5.85;;
71867;SDS011;59738;48.324;14.230;2022-11-25T02:51:13;15.15;;;6.95;;
71867;SDS011;59738;48.324;14.230;2022-11-25T02:53:42;15.13;;;7.88;;
71867;SDS011;59738;48.324;14.230;2022-11-25T02:56:10;15.48;;;7.20;;
71867;SDS011;59738;48.324;14.230;2022-11-25T02:58:39;15.07;;;7.57;;
71867;SDS011;59738;48.324;14.230;2022-11-25T03:01:09;14.45;;;6.85;;
71867;SDS011;59738;48.324;14.230;2022-11-25T03:03:37;13.18;;;6.50;;
71867;SDS011;59738;48.324;14.230;2022-11-25T03:06:06;17.13;;;7.10;;
71867;SDS011;59738;48.324;14.230;2022-11-25T03:08:33;18.27;;;6.97;;
71867;SDS011;59738;48.324;14.230;2022-11-25T03:11:05;12.23;;;6.23;;
71867;SDS011;59738;48.324;14.230;2022-11-25T03:13:33;12.85;;;6.88;;
71867;SDS011;59738;48.324;14.230;2022-11-25T03:16:01;11.13;;;6.00;;
71867;SDS011;59738;48.324;14.230;2022-11-25T03:18:30;15.35;;;6.68;;
71867;SDS011;59738;48.324;14.230;2022-11-25T03:20:58;12.80;;;6.05;;
71867;SDS011;59738;48.324;14.230;2022-11-25T03:23:25;12.73;;;6.00;;
71867;SDS011;59738;48.324;14.230;2022-11-25T03:25:53;10.35;;;5.95;;
71867;SDS011;59738;48.324;14.230;2022-11-25T03:28:21;10.73;;;5.38;;
71867;SDS011;59738;48.324;14.230;2022-11-25T03:30:49;11.82;;;6.38;;
71867;SDS011;59738;48.324;14.230;2022-11-25T03:33:17;13.68;;;6.32;;
71867;SDS011;59738;48.324;14.230;2022-11-25T03:35:48;11.83;;;5.87;;
71867;SDS011;59738;48.324;14.230;2022-11-25T03:38:16;11.80;;;5.70;;
71867;SDS011;59738;48.324;14.230;2022-11-25T03:40:43;13.20;;;6.53;;
71867;SDS011;59738;48.324;14.230;2022-11-25T03:43:12;13.85;;;6.28;;
71867;SDS011;59738;48.324;14.230;2022-11-25T03:45:40;11.32;;;5.90;;
71867;SDS011;59738;48.324;14.230;2022-11-25T03:48:08;13.40;;;5.33;;
71867;SDS011;59738;48.324;14.230;2022-11-25T03:50:36;12.48;;;5.43;;
71867;SDS011;59738;48.324;14.230;2022-11-25T03:53:05;14.68;;;6.40;;
71867;SDS011;59738;48.324;14.230;2022-11-25T03:55:34;14.50;;;5.80;;
71867;SDS011;59738;48.324;14.230;2022-11-25T03:58:02;13.45;;;5.88;;
71867;SDS011;59738;48.324;14.230;2022-11-25T04:00:31;12.47;;;6.10;;
71867;SDS011;59738;48.324;14.230;2022-11-25T04:03:03;12.48;;;5.50;;
71867;SDS011;59738;48.324;14.230;2022-11-25T04:05:32;9.23;;;4.68;;
71867;SDS011;59738;48.324;14.230;2022-11-25T04:08:05;12.93;;;4.70;;
71867;SDS011;59738;48.324;14.230;2022-11-25T04:10:34;13.73;;;5.63;;
71867;SDS011;59738;48.324;14.230;2022-11-25T04:13:03;14.03;;;5.27;;
71867;SDS011;59738;48.324;14.230;2022-11-25T04:15:35;10.80;;;5.20;;
71867;SDS011;59738;48.324;14.230;2022-11-25T04:18:02;12.43;;;5.50;;
71867;SDS011;59738;48.324;14.230;2022-11-25T04:20:31;10.77;;;5.25;;
71867;SDS011;59738;48.324;14.230;2022-11-25T04:23:03;9.68;;;5.13;;
71867;SDS011;59738;48.324;14.230;2022-11-25T04:25:35;9.57;;;4.80;;
71867;SDS011;59738;48.324;14.230;2022-11-25T04:28:10;12.27;;;4.93;;
71867;SDS011;59738;48.324;14.230;2022-11-25T04:30:39;8.48;;;4.28;;
71867;SDS011;59738;48.324;14.230;2022-11-25T04:33:07;7.85;;;4.40;;
71867;SDS011;59738;48.324;14.230;2022-11-25T04:35:34;9.68;;;4.82;;
71867;SDS011;59738;48.324;14.230;2022-11-25T04:38:02;9.40;;;5.20;;
71867;SDS011;59738;48.324;14.230;2022-11-25T04:40:32;8.43;;;4.70;;
71867;SDS011;59738;48.324;14.230;2022-11-25T04:43:17;8.40;;;4.85;;
71867;SDS011;59738;48.324;14.230;2022-11-25T04:45:52;12.43;;;4.80;;
71867;SDS011;59738;48.324;14.230;2022-11-25T04:48:20;11.88;;;5.30;;
71867;SDS011;59738;48.324;14.230;2022-11-25T04:50:48;9.23;;;4.83;;
71867;SDS011;59738;48.324;14.230;2022-11-25T04:53:17;11.75;;;5.15;;
71867;SDS011;59738;48.324;14.230;2022-11-25T04:55:45;11.38;;;5.30;;
71867;SDS011;59738;48.324;14.230;2022-11-25T04:58:14;13.32;;;7.00;;
71867;SDS011;59738;48.324;14.230;2022-11-25T05:01:03;16.88;;;7.90;;
71867;SDS011;59738;48.324;14.230;2022-11-25T05:03:34;13.40;;;8.40;;
71867;SDS011;59738;48.324;14.230;2022-11-25T05:06:04;24.27;;;10.20;;
71867;SDS011;59738;48.324;14.230;2022-11-25T05:08:32;23.08;;;10.57;;
71867;SDS011;59738;48.324;14.230;2022-11-25T05:11:03;21.45;;;8.90;;
71867;SDS011;59738;48.324;14.230;2022-11-25T05:13:30;24.23;;;9.25;;
71867;SDS011;59738;48.324;14.230;2022-11-25T05:15:58;34.53;;;12.83;;
71867;SDS011;59738;48.324;14.230;2022-11-25T05:18:26;34.05;;;12.00;;
71867;SDS011;59738;48.324;14.230;2022-11-25T05:20:59;19.13;;;8.88;;
71867;SDS011;59738;48.324;14.230;2022-11-25T05:23:28;19.55;;;9.88;;
71867;SDS011;59738;48.324;14.230;2022-11-25T05:25:57;21.35;;;10.57;;
71867;SDS011;59738;48.324;14.230;2022-11-25T05:28:36;21.13;;;9.27;;
71867;SDS011;59738;48.324;14.230;2022-11-25T05:31:04;20.27;;;9.77;;
71867;SDS011;59738;48.324;14.230;2022-11-25T05:33:32;21.65;;;9.27;;
71867;SDS011;59738;48.324;14.230;2022-11-25T05:36:01;21.40;;;8.27;;
71867;SDS011;59738;48.324;14.230;2022-11-25T05:38:41;16.00;;;7.13;;
71867;SDS011;59738;48.324;14.230;2022-11-25T05:41:12;15.00;;;6.73;;
71867;SDS011;59738;48.324;14.230;2022-11-25T05:43:44;14.43;;;7.35;;
71867;SDS011;59738;48.324;14.230;2022-11-25T05:46:12;15.00;;;7.18;;
71867;SDS011;59738;48.324;14.230;2022-11-25T05:48:45;15.10;;;7.57;;
71867;SDS011;59738;48.324;14.230;2022-11-25T05:51:13;17.70;;;7.18;;
71867;SDS011;59738;48.324;14.230;2022-11-25T05:53:40;14.97;;;6.67;;
71867;SDS011;59738;48.324;14.230;2022-11-25T05:56:08;17.65;;;7.35;;
71867;SDS011;59738;48.324;14.230;2022-11-25T05:59:05;15.35;;;7.85;;
71867;SDS011;59738;48.324;14.230;2022-11-25T06:01:44;16.88;;;7.57;;
71867;SDS011;59738;48.324;14.230;2022-11-25T06:04:11;18.60;;;7.30;;
71867;SDS011;59738;48.324;14.230;2022-11-25T06:06:40;17.70;;;7.80;;
71867;SDS011;59738;48.324;14.230;2022-11-25T06:09:07;16.70;;;6.97;;
71867;SDS011;59738;48.324;14.230;2022-11-25T06:11:35;16.48;;;6.63;;
71867;SDS011;59738;48.324;14.230;2022-11-25T06:14:07;14.93;;;7.38;;
71867;SDS011;59738;48.324;14.230;2022-11-25T06:16:36;12.98;;;6.30;;
71867;SDS011;59738;48.324;14.230;2022-11-25T06:19:20;26.73;;;7.53;;
71867;SDS011;59738;48.324;14.230;2022-11-25T06:21:48;22.27;;;7.70;;
71867;SDS011;59738;48.324;14.230;2022-11-25T06:24:16;14.80;;;6.82;;
71867;SDS011;59738;48.324;14.230;2022-11-25T06:26:46;13.35;;;6.75;;
71867;SDS011;59738;48.324;14.230;2022-11-25T06:29:15;12.15;;;5.65;;
71867;SDS011;59738;48.324;14.230;2022-11-25T06:31:47;13.23;;;6.43;;
71867;SDS011;59738;48.324;14.230;2022-11-25T06:34:31;12.07;;;5.28;;
71867;SDS011;59738;48.324;14.230;2022-11-25T06:36:59;13.63;;;6.30;;
71867;SDS011;59738;48.324;14.230;2022-11-25T06:39:27;13.88;;;7.00;;
71867;SDS011;59738;48.324;14.230;2022-11-25T06:41:54;14.05;;;6.72;;
71867;SDS011;59738;48.324;14.230;2022-11-25T06:44:23;14.27;;;6.37;;
71867;SDS011;59738;48.324;14.230;2022-11-25T06:46:51;12.32;;;5.82;;
71867;SDS011;59738;48.324;14.230;2022-11-25T06:49:18;22.08;;;7.13;;
71867;SDS011;59738;48.324;14.230;2022-11-25T06:51:47;104.60;;;11.23;;
71867;SDS011;59738;48.324;14.230;2022-11-25T06:54:15;135.52;;;13.45;;
71867;SDS011;59738;48.324;14.230;2022-11-25T06:56:42;106.90;;;12.40;;
71867;SDS011;59738;48.324;14.230;2022-11-25T06:59:10;119.32;;;10.18;;
71867;SDS011;59738;48.324;14.230;2022-11-25T07:01:39;56.42;;;8.70;;
71867;SDS011;59738;48.324;14.230;2022-11-25T07:04:06;26.00;;;8.73;;
71867;SDS011;59738;48.324;14.230;2022-11-25T07:06:34;19.20;;;7.63;;
71867;SDS011;59738;48.324;14.230;2022-11-25T07:09:02;17.50;;;8.90;;
71867;SDS011;59738;48.324;14.230;2022-11-25T07:11:30;18.42;;;7.93;;
71867;SDS011;59738;48.324;14.230;2022-11-25T07:13:59;19.23;;;8.27;;
71867;SDS011;59738;48.324;14.230;2022-11-25T07:16:28;16.23;;;8.48;;
71867;SDS011;59738;48.324;14.230;2022-11-25T07:18:58;17.30;;;8.70;;
71867;SDS011;59738;48.324;14.230;2022-11-25T07:21:29;16.60;;;7.57;;
71867;SDS011;59738;48.324;14.230;2022-11-25T07:23:57;16.52;;;7.60;;
71867;SDS011;59738;48.324;14.230;2022-11-25T07:26:28;14.88;;;6.90;;
71867;SDS011;59738;48.324;14.230;2022-11-25T07:28:57;14.68;;;7.00;;
71867;SDS011;59738;48.324;14.230;2022-11-25T07:31:26;16.85;;;9.00;;
71867;SDS011;59738;48.324;14.230;2022-11-25T07:33:56;18.00;;;8.10;;
71867;SDS011;59738;48.324;14.230;2022-11-25T07:36:26;17.30;;;7.15;;
71867;SDS011;59738;48.324;14.230;2022-11-25T07:38:56;18.15;;;5.75;;
71867;SDS011;59738;48.324;14.230;2022-11-25T07:41:24;14.00;;;5.75;;
71867;SDS011;59738;48.324;14.230;2022-11-25T07:43:53;11.30;;;5.30;;
71867;SDS011;59738;48.324;14.230;2022-11-25T07:46:24;17.73;;;6.17;;
71867;SDS011;59738;48.324;14.230;2022-11-25T07:48:53;13.50;;;5.85;;
71867;SDS011;59738;48.324;14.230;2022-11-25T07:51:23;13.75;;;5.68;;
71867;SDS011;59738;48.324;14.230;2022-11-25T07:53:52;16.98;;;7.15;;
71867;SDS011;59738;48.324;14.230;2022-11-25T07:56:20;19.05;;;8.77;;
71867;SDS011;59738;48.324;14.230;2022-11-25T07:58:48;26.43;;;11.10;;
71867;SDS011;59738;48.324;14.230;2022-11-25T08:01:16;28.75;;;11.70;;
71867;SDS011;59738;48.324;14.230;2022-11-25T08:03:46;29.90;;;12.15;;
71867;SDS011;59738;48.324;14.230;2022-11-25T08:06:15;30.52;;;10.07;;
71867;SDS011;59738;48.324;14.230;2022-11-25T08:08:45;29.05;;;9.23;;
71867;SDS011;59738;48.324;14.230;2022-11-25T08:11:14;20.03;;;7.70;;
71867;SDS011;59738;48.324;14.230;2022-11-25T08:13:44;22.48;;;6.90;;
71867;SDS011;59738;48.324;14.230;2022-11-25T08:16:12;20.60;;;8.85;;
71867;SDS011;59738;48.324;14.230;2022-11-25T08:18:40;23.92;;;8.90;;
71867;SDS011;59738;48.324;14.230;2022-11-25T08:21:09;23.75;;;10.05;;
71867;SDS011;59738;48.324;14.230;2022-11-25T08:23:38;28.87;;;11.23;;
71867;SDS011;59738;48.324;14.230;2022-11-25T08:26:09;27.20;;;11.05;;
71867;SDS011;59738;48.324;14.230;2022-11-25T08:28:39;26.80;;;9.23;;
71867;SDS011;59738;48.324;14.230;2022-11-25T08:31:08;24.65;;;9.80;;
71867;SDS011;59738;48.324;14.230;2022-11-25T08:33:36;22.35;;;9.82;;
71867;SDS011;59738;48.324;14.230;2022-11-25T08:36:04;25.67;;;7.73;;
71867;SDS011;59738;48.324;14.230;2022-11-25T08:38:34;22.30;;;7.10;;
71867;SDS011;59738;48.324;14.230;2022-11-25T08:41:01;46.75;;;6.70;;
71867;SDS011;59738;48.324;14.230;2022-11-25T08:43:30;35.80;;;6.80;;
71867;SDS011;59738;48.324;14.230;2022-11-25T08:45:59;103.35;;;7.05;;
71867;SDS011;59738;48.324;14.230;2022-11-25T08:48:26;67.70;;;6.57;;
71867;SDS011;59738;48.324;14.230;2022-11-25T08:50:54;86.40;;;7.35;;
71867;SDS011;59738;48.324;14.230;2022-11-25T08:53:22;49.45;;;9.18;;
71867;SDS011;59738;48.324;14.230;2022-11-25T08:55:49;67.25;;;8.60;;
71867;SDS011;59738;48.324;14.230;2022-11-25T08:58:17;78.15;;;9.30;;
71867;SDS011;59738;48.324;14.230;2022-11-25T09:00:45;85.57;;;7.17;;
71867;SDS011;59738;48.324;14.230;2022-11-25T09:03:13;82.13;;;7.18;;
71867;SDS011;59738;48.324;14.230;2022-11-25T09:05:41;115.72;;;6.68;;
71867;SDS011;59738;48.324;14.230;2022-11-25T09:08:09;112.90;;;8.52;;
71867;SDS011;59738;48.324;14.230;2022-11-25T09:10:37;86.00;;;8.35;;
71867;SDS011;59738;48.324;14.230;2022-11-25T09:13:05;54.23;;;7.87;;
71867;SDS011;59738;48.324;14.230;2022-11-25T09:15:32;75.05;;;9.57;;
71867;SDS011;59738;48.324;14.230;2022-11-25T09:18:02;150.07;;;9.93;;
71867;SDS011;59738;48.324;14.230;2022-11-25T09:20:31;77.85;;;9.20;;
71867;SDS011;59738;48.324;14.230;2022-11-25T09:22:59;92.40;;;11.90;;
71867;SDS011;59738;48.324;14.230;2022-11-25T09:25:28;66.73;;;11.57;;
71867;SDS011;59738;48.324;14.230;2022-11-25T09:27:55;58.95;;;10.90;;
71867;SDS011;59738;48.324;14.230;2022-11-25T09:30:23;42.28;;;10.25;;
71867;SDS011;59738;48.324;14.230;2022-11-25T09:32:52;27.40;;;9.88;;
71867;SDS011;59738;48.324;14.230;2022-11-25T09:35:22;70.85;;;11.05;;
71867;SDS011;59738;48.324;14.230;2022-11-25T09:37:50;108.43;;;12.37;;
71867;SDS011;59738;48.324;14.230;2022-11-25T09:40:18;58.60;;;11.23;;
71867;SDS011;59738;48.324;14.230;2022-11-25T09:42:54;63.92;;;10.85;;
71867;SDS011;59738;48.324;14.230;2022-11-25T09:45:44;73.35;;;10.95;;
71867;SDS011;59738;48.324;14.230;2022-11-25T09:48:36;64.75;;;11.23;;
71867;SDS011;59738;48.324;14.230;2022-11-25T09:51:19;31.60;;;10.57;;
71867;SDS011;59738;48.324;14.230;2022-11-25T09:53:50;25.67;;;9.38;;
71867;SDS011;59738;48.324;14.230;2022-11-25T09:56:22;38.28;;;11.68;;
71867;SDS011;59738;48.324;14.230;2022-11-25T09:58:56;21.73;;;9.73;;
71867;SDS011;59738;48.324;14.230;2022-11-25T10:01:27;21.35;;;9.43;;
71867;SDS011;59738;48.324;14.230;2022-11-25T10:03:57;23.20;;;10.03;;
71867;SDS011;59738;48.324;14.230;2022-11-25T10:06:29;33.03;;;13.98;;
71867;SDS011;59738;48.324;14.230;2022-11-25T10:09:00;51.40;;;19.55;;
71867;SDS011;59738;48.324;14.230;2022-11-25T10:11:34;57.22;;;21.92;;
71867;SDS011;59738;48.324;14.230;2022-11-25T10:14:10;38.13;;;14.82;;
71867;SDS011;59738;48.324;14.230;2022-11-25T10:16:46;28.43;;;12.67;;
71867;SDS011;59738;48.324;14.230;2022-11-25T10:19:22;30.75;;;12.30;;
71867;SDS011;59738;48.324;14.230;2022-11-25T10:21:55;28.42;;;11.00;;
71867;SDS011;59738;48.324;14.230;2022-11-25T10:24:23;29.00;;;11.20;;
71867;SDS011;59738;48.324;14.230;2022-11-25T10:26:53;34.63;;;11.55;;
71867;SDS011;59738;48.324;14.230;2022-11-25T10:29:24;56.23;;;11.60;;
71867;SDS011;59738;48.324;14.230;2022-11-25T10:31:57;37.72;;;10.73;;
71867;SDS011;59738;48.324;14.230;2022-11-25T10:34:38;56.75;;;11.27;;
71867;SDS011;59738;48.324;14.230;2022-11-25T10:37:10;44.03;;;10.80;;
71867;SDS011;59738;48.324;14.230;2022-11-25T10:39:39;51.67;;;10.32;;
71867;SDS011;59738;48.324;14.230;2022-11-25T10:42:12;25.83;;;10.37;;
71867;SDS011;59738;48.324;14.230;2022-11-25T10:44:42;47.63;;;9.93;;
71867;SDS011;59738;48.324;14.230;2022-11-25T10:47:19;44.15;;;10.82;;
71867;SDS011;59738;48.324;14.230;2022-11-25T10:49:58;34.17;;;10.30;;
71867;SDS011;59738;48.324;14.230;2022-11-25T10:52:33;32.83;;;10.88;;
71867;SDS011;59738;48.324;14.230;2022-11-25T10:55:08;41.80;;;11.43;;
71867;SDS011;59738;48.324;14.230;2022-11-25T10:57:37;43.33;;;11.68;;
71867;SDS011;59738;48.324;14.230;2022-11-25T11:00:06;33.28;;;11.63;;
71867;SDS011;59738;48.324;14.230;2022-11-25T11:02:38;33.10;;;11.50;;
71867;SDS011;59738;48.324;14.230;2022-11-25T11:05:15;41.80;;;11.90;;
71867;SDS011;59738;48.324;14.230;2022-11-25T11:07:46;29.93;;;12.67;;
71867;SDS011;59738;48.324;14.230;2022-11-25T11:10:19;43.30;;;12.95;;
71867;SDS011;59738;48.324;14.230;2022-11-25T11:12:55;36.45;;;12.50;;
71867;SDS011;59738;48.324;14.230;2022-11-25T11:15:24;33.83;;;12.23;;
71867;SDS011;59738;48.324;14.230;2022-11-25T11:17:54;36.20;;;13.77;;
71867;SDS011;59738;48.324;14.230;2022-11-25T11:20:23;32.63;;;12.60;;
71867;SDS011;59738;48.324;14.230;2022-11-25T11:22:56;31.02;;;11.45;;
71867;SDS011;59738;48.324;14.230;2022-11-25T11:25:28;41.85;;;14.27;;
71867;SDS011;59738;48.324;14.230;2022-11-25T11:27:58;30.92;;;12.63;;
71867;SDS011;59738;48.324;14.230;2022-11-25T11:30:26;39.00;;;13.45;;
71867;SDS011;59738;48.324;14.230;2022-11-25T11:32:56;31.70;;;11.83;;
71867;SDS011;59738;48.324;14.230;2022-11-25T11:35:28;39.20;;;11.95;;
71867;SDS011;59738;48.324;14.230;2022-11-25T11:38:16;35.53;;;12.63;;
71867;SDS011;59738;48.324;14.230;2022-11-25T11:40:51;38.22;;;12.70;;
71867;SDS011;59738;48.324;14.230;2022-11-25T11:43:28;57.70;;;14.02;;
71867;SDS011;59738;48.324;14.230;2022-11-25T11:46:27;30.53;;;12.60;;
71867;SDS011;59738;48.324;14.230;2022-11-25T11:49:01;37.53;;;13.45;;
71867;SDS011;59738;48.324;14.230;2022-11-25T11:51:40;37.70;;;13.52;;
71867;SDS011;59738;48.324;14.230;2022-11-25T11:54:16;41.75;;;14.63;;
71867;SDS011;59738;48.324;14.230;2022-11-25T11:56:48;33.90;;;13.27;;
71867;SDS011;59738;48.324;14.230;2022-11-25T11:59:30;37.80;;;13.90;;
71867;SDS011;59738;48.324;14.230;2022-11-25T12:02:13;41.47;;;13.65;;
71867;SDS011;59738;48.324;14.230;2022-11-25T12:04:49;39.60;;;12.98;;
71867;SDS011;59738;48.324;14.230;2022-11-25T12:07:19;36.28;;;12.93;;
71867;SDS011;59738;48.324;14.230;2022-11-25T12:09:56;35.53;;;12.98;;
71867;SDS011;59738;48.324;14.230;2022-11-25T12:12:28;30.67;;;11.93;;
71867;SDS011;59738;48.324;14.230;2022-11-25T12:15:01;33.70;;;12.75;;
71867;SDS011;59738;48.324;14.230;2022-11-25T12:17:33;33.40;;;13.27;;
71867;SDS011;59738;48.324;14.230;2022-11-25T12:20:08;32.10;;;13.50;;
71867;SDS011;59738;48.324;14.230;2022-11-25T12:22:43;29.63;;;13.57;;
71867;SDS011;59738;48.324;14.230;2022-11-25T12:25:18;30.70;;;12.90;;
71867;SDS011;59738;48.324;14.230;2022-11-25T12:27:49;33.13;;;13.00;;
71867;SDS011;59738;48.324;14.230;2022-11-25T12:30:18;31.00;;;12.20;;
71867;SDS011;59738;48.324;14.230;2022-11-25T12:32:49;29.83;;;13.20;;
71867;SDS011;59738;48.324;14.230;2022-11-25T12:35:22;32.15;;;14.10;;
71867;SDS011;59738;48.324;14.230;2022-11-25T12:37:56;35.10;;;13.90;;
71867;SDS011;59738;48.324;14.230;2022-11-25T12:40:31;32.30;;;13.00;;
71867;SDS011;59738;48.324;14.230;2022-11-25T12:43:04;30.35;;;12.38;;
71867;SDS011;59738;48.324;14.230;2022-11-25T12:45:37;30.00;;;12.52;;
71867;SDS011;59738;48.324;14.230;2022-11-25T12:48:07;35.45;;;13.07;;
71867;SDS011;59738;48.324;14.230;2022-11-25T12:50:39;31.67;;;12.23;;
71867;SDS011;59738;48.324;14.230;2022-11-25T12:53:12;30.52;;;12.85;;
71867;SDS011;59738;48.324;14.230;2022-11-25T12:55:44;33.97;;;13.52;;
71867;SDS011;59738;48.324;14.230;2022-11-25T12:58:26;31.40;;;12.50;;
71867;SDS011;59738;48.324;14.230;2022-11-25T13:01:23;34.28;;;13.25;;
71867;SDS011;59738;48.324;14.230;2022-11-25T13:09:55;35.30;;;12.45;;
71867;SDS011;59738;48.324;14.230;2022-11-25T13:12:37;33.10;;;12.18;;
71867;SDS011;59738;48.324;14.230;2022-11-25T13:15:14;27.73;;;12.25;;
71867;SDS011;59738;48.324;14.230;2022-11-25T13:17:45;33.73;;;14.33;;
71867;SDS011;59738;48.324;14.230;2022-11-25T13:20:24;32.90;;;13.32;;
71867;SDS011;59738;48.324;14.230;2022-11-25T13:23:00;37.70;;;13.15;;
71867;SDS011;59738;48.324;14.230;2022-11-25T13:25:28;37.78;;;13.35;;
71867;SDS011;59738;48.324;14.230;2022-11-25T13:27:57;43.55;;;13.63;;
71867;SDS011;59738;48.324;14.230;2022-11-25T13:30:36;45.20;;;13.13;;
71867;SDS011;59738;48.324;14.230;2022-11-25T13:36:14;36.55;;;11.90;;
71867;SDS011;59738;48.324;14.230;2022-11-25T13:39:02;46.25;;;13.35;;
71867;SDS011;59738;48.324;14.230;2022-11-25T13:41:36;36.55;;;11.95;;
71867;SDS011;59738;48.324;14.230;2022-11-25T13:49:52;43.22;;;13.38;;
71867;SDS011;59738;48.324;14.230;2022-11-25T13:55:06;38.55;;;12.15;;
71867;SDS011;59738;48.324;14.230;2022-11-25T13:57:42;28.20;;;12.93;;
71867;SDS011;59738;48.324;14.230;2022-11-25T14:06:10;28.55;;;12.57;;
71867;SDS011;59738;48.324;14.230;2022-11-25T14:08:50;37.72;;;11.95;;
71867;SDS011;59738;48.324;14.230;2022-11-25T14:11:31;23.43;;;10.27;;
71867;SDS011;59738;48.324;14.230;2022-11-25T14:14:18;23.35;;;10.45;;
71867;SDS011;59738;48.324;14.230;2022-11-25T14:16:57;25.13;;;10.88;;
71867;SDS011;59738;48.324;14.230;2022-11-25T14:19:41;23.13;;;10.75;;
71867;SDS011;59738;48.324;14.230;2022-11-25T14:22:27;24.77;;;10.45;;
71867;SDS011;59738;48.324;14.230;2022-11-25T14:25:08;26.90;;;11.00;;
71867;SDS011;59738;48.324;14.230;2022-11-25T14:27:43;20.50;;;9.15;;
71867;SDS011;59738;48.324;14.230;2022-11-25T14:30:13;20.70;;;10.18;;
71867;SDS011;59738;48.324;14.230;2022-11-25T14:32:43;26.85;;;10.48;;
71867;SDS011;59738;48.324;14.230;2022-11-25T14:35:14;32.58;;;12.07;;
71867;SDS011;59738;48.324;14.230;2022-11-25T14:37:44;30.23;;;11.30;;
71867;SDS011;59738;48.324;14.230;2022-11-25T14:40:17;37.17;;;12.32;;
71867;SDS011;59738;48.324;14.230;2022-11-25T14:42:47;33.15;;;11.50;;
71867;SDS011;59738;48.324;14.230;2022-11-25T14:45:21;35.20;;;10.82;;
71867;SDS011;59738;48.324;14.230;2022-11-25T14:47:53;28.65;;;10.35;;
71867;SDS011;59738;48.324;14.230;2022-11-25T14:50:21;30.70;;;10.63;;
71867;SDS011;59738;48.324;14.230;2022-11-25T14:52:49;32.42;;;10.90;;
71867;SDS011;59738;48.324;14.230;2022-11-25T14:55:22;26.13;;;9.73;;
71867;SDS011;59738;48.324;14.230;2022-11-25T14:57:51;31.20;;;10.80;;
71867;SDS011;59738;48.324;14.230;2022-11-25T15:00:19;30.73;;;10.52;;
71867;SDS011;59738;48.324;14.230;2022-11-25T15:02:52;29.77;;;10.60;;
71867;SDS011;59738;48.324;14.230;2022-11-25T15:05:23;31.23;;;10.40;;